createdAt,value
2023-05-19T00:00:38.979Z,57.19
2023-05-19T00:03:10.100Z,56.92
2023-05-19T00:05:46.815Z,56.44
2023-05-19T00:08:19.951Z,57.17
2023-05-19T00:10:50.040Z,57.23
2023-05-19T00:13:19.727Z,57.25
2023-05-19T00:15:49.703Z,56.70
2023-05-19T00:18:19.402Z,56.99
2023-05-19T00:20:48.899Z,56.63
2023-05-19T00:23:18.187Z,56.41
2023-05-19T00:25:47.666Z,55.91
2023-05-19T00:28:17.306Z,55.79
2023-05-19T00:30:47.072Z,55.44
2023-05-19T00:33:16.325Z,55.05
2023-05-19T00:35:45.747Z,55.12
2023-05-19T00:38:15.062Z,54.59
2023-05-19T00:40:44.940Z,55.17
2023-05-19T00:43:14.587Z,55.44
2023-05-19T00:45:44.460Z,55.17
2023-05-19T00:48:13.729Z,54.85
2023-05-19T00:50:43.549Z,54.87
2023-05-19T00:53:14.374Z,54.27
2023-05-19T00:55:44.537Z,54.10
2023-05-19T00:58:15.542Z,53.97
2023-05-19T01:00:46.711Z,54.24
2023-05-19T01:03:21.484Z,53.92
2023-05-19T01:05:54.760Z,54.03
2023-05-19T01:08:24.682Z,55.02
2023-05-19T01:10:59.052Z,53.47
2023-05-19T01:13:47.328Z,53.21
2023-05-19T01:16:23.580Z,53.37
2023-05-19T01:19:14.222Z,53.15
2023-05-19T01:21:58.447Z,53.19
2023-05-19T01:25:01.680Z,52.81
2023-05-19T01:28:02.803Z,52.03
2023-05-19T01:30:38.621Z,51.87
2023-05-19T01:33:17.823Z,52.01
2023-05-19T01:35:49.113Z,52.37
2023-05-19T01:38:21.877Z,52.01
2023-05-19T01:40:53.046Z,51.84
2023-05-19T01:43:25.608Z,51.64
2023-05-19T01:45:56.542Z,51.90
2023-05-19T01:48:32.112Z,51.49
2023-05-19T01:51:03.809Z,51.32
2023-05-19T01:53:34.047Z,51.01
2023-05-19T01:56:04.598Z,50.08
2023-05-19T01:58:40.006Z,50.14
2023-05-19T02:01:18.566Z,50.40
2023-05-19T02:04:14.629Z,49.29
2023-05-19T02:07:02.890Z,50.12
2023-05-19T02:09:41.778Z,50.10
2023-05-19T02:12:32.784Z,50.10
2023-05-19T02:15:13.171Z,49.29
2023-05-19T02:17:48.869Z,49.10
2023-05-19T02:20:19.329Z,49.49
2023-05-19T02:22:49.237Z,49.76
2023-05-19T02:25:18.776Z,48.76
2023-05-19T02:27:50.227Z,48.29
2023-05-19T02:30:19.858Z,49.23
2023-05-19T02:32:49.430Z,49.23
2023-05-19T02:35:19.063Z,48.90
2023-05-19T02:37:48.528Z,48.62
2023-05-19T02:40:17.805Z,48.42
2023-05-19T02:42:47.396Z,48.82
2023-05-19T02:45:16.792Z,49.04
2023-05-19T02:47:46.685Z,48.24
2023-05-19T02:50:16.089Z,48.52
2023-05-19T02:52:45.561Z,48.58
2023-05-19T02:55:18.261Z,48.70
2023-05-19T02:57:47.674Z,48.52
2023-05-19T03:00:17.493Z,48.27
2023-05-19T03:02:47.416Z,47.91
2023-05-19T03:05:16.997Z,48.06
2023-05-19T03:07:46.806Z,47.67
2023-05-19T03:10:16.349Z,48.28
2023-05-19T03:12:45.617Z,48.29
2023-05-19T03:15:16.185Z,47.86
2023-05-19T03:17:46.097Z,47.41
2023-05-19T03:20:17.002Z,47.22
2023-05-19T03:22:46.685Z,47.49
2023-05-19T03:25:19.174Z,48.35
2023-05-19T03:27:48.780Z,47.71
2023-05-19T03:30:18.286Z,48.29
2023-05-19T03:33:13.808Z,46.80
2023-05-19T03:35:45.517Z,46.75
2023-05-19T03:38:16.475Z,46.22
2023-05-19T03:40:54.789Z,46.73
2023-05-19T03:43:24.517Z,45.94
2023-05-19T03:46:00.808Z,45.66
2023-05-19T03:48:48.990Z,45.17
2023-05-19T03:51:18.681Z,45.74
2023-05-19T03:53:50.086Z,44.66
2023-05-19T03:56:24.192Z,44.93
2023-05-19T03:58:56.685Z,44.82
2023-05-19T04:01:26.212Z,44.43
2023-05-19T04:03:55.697Z,44.22
2023-05-19T04:06:25.468Z,43.33
2023-05-19T04:08:56.350Z,44.08
2023-05-19T04:11:25.859Z,43.31
2023-05-19T04:13:55.050Z,42.52
2023-05-19T04:16:24.614Z,42.63
2023-05-19T04:18:54.009Z,42.07
2023-05-19T04:21:23.625Z,42.73
2023-05-19T04:23:56.675Z,42.49
2023-05-19T04:26:31.945Z,42.28
2023-05-19T04:29:03.166Z,41.73
2023-05-19T04:31:32.854Z,41.33
2023-05-19T04:34:04.624Z,40.64
2023-05-19T04:36:35.073Z,41.43
2023-05-19T04:39:09.764Z,40.04
2023-05-19T04:41:41.535Z,40.11
2023-05-19T04:44:11.305Z,40.18
2023-05-19T04:46:41.052Z,39.77
2023-05-19T04:49:16.487Z,39.89
2023-05-19T04:51:47.304Z,38.92
2023-05-19T04:54:17.019Z,38.69
2023-05-19T04:56:46.789Z,38.57
2023-05-19T04:59:16.984Z,37.36
2023-05-19T05:01:46.598Z,37.70
2023-05-19T05:04:18.338Z,37.11
2023-05-19T05:06:49.144Z,36.45
2023-05-19T05:09:23.261Z,37.23
2023-05-19T05:11:53.248Z,36.65
2023-05-19T05:14:23.142Z,35.71
2023-05-19T05:16:53.142Z,35.47
2023-05-19T05:19:26.030Z,35.78
2023-05-19T05:21:56.991Z,35.62
2023-05-19T05:24:27.273Z,34.32
2023-05-19T05:27:00.997Z,35.51
2023-05-19T05:29:32.390Z,34.41
2023-05-19T05:32:03.566Z,35.63
2023-05-19T05:34:33.779Z,35.24
2023-05-19T05:37:03.041Z,35.31
2023-05-19T05:39:39.068Z,32.91
2023-05-19T05:42:29.543Z,33.22
2023-05-19T05:44:59.578Z,32.58
2023-05-19T05:47:29.567Z,33.13
2023-05-19T05:49:59.748Z,32.49
2023-05-19T05:52:32.039Z,32.85
2023-05-19T05:55:03.226Z,32.02
2023-05-19T05:57:32.929Z,32.16
2023-05-19T06:00:02.536Z,30.80
2023-05-19T06:02:34.187Z,30.68
2023-05-19T06:05:03.827Z,30.79
2023-05-19T06:07:33.631Z,31.71
2023-05-19T06:10:03.798Z,32.53
2023-05-19T06:12:43.479Z,32.45
2023-05-19T06:15:14.355Z,30.98
2023-05-19T06:18:00.658Z,31.30
2023-05-19T06:20:31.210Z,31.60
2023-05-19T06:23:02.919Z,30.84
2023-05-19T06:25:32.856Z,30.47
2023-05-19T06:28:03.329Z,29.95
2023-05-19T06:30:33.105Z,31.06
2023-05-19T06:33:17.839Z,29.99
2023-05-19T06:35:47.418Z,29.43
2023-05-19T06:38:18.764Z,29.83
2023-05-19T06:40:48.561Z,29.59
2023-05-19T06:43:17.863Z,28.96
2023-05-19T06:45:57.060Z,29.54
2023-05-19T06:48:28.022Z,28.86
2023-05-19T06:50:57.820Z,28.94
2023-05-19T06:53:27.820Z,29.23
2023-05-19T06:55:59.869Z,29.60
2023-05-19T06:58:35.386Z,28.64
2023-05-19T07:01:07.684Z,29.13
2023-05-19T07:03:44.516Z,28.44
2023-05-19T07:06:18.753Z,28.52
2023-05-19T07:08:49.291Z,28.08
2023-05-19T07:11:19.950Z,28.12
2023-05-19T07:13:51.067Z,28.90
2023-05-19T07:16:26.772Z,27.97
2023-05-19T07:19:23.752Z,28.60
2023-05-19T07:22:04.948Z,28.36
2023-05-19T07:24:43.875Z,28.49
2023-05-19T07:27:33.816Z,27.61
2023-05-19T07:30:35.653Z,27.67
2023-05-19T07:33:42.022Z,27.95
2023-05-19T07:39:54.760Z,27.39
2023-05-19T07:42:32.386Z,28.24
2023-05-19T07:45:24.918Z,27.92
2023-05-19T07:48:15.429Z,26.44
2023-05-19T07:50:56.167Z,27.01
2023-05-19T07:53:48.648Z,28.20
2023-05-19T07:57:01.507Z,27.71
2023-05-19T07:59:59.444Z,27.49
2023-05-19T08:02:47.430Z,28.00
2023-05-19T08:05:58.901Z,27.58
2023-05-19T08:08:48.246Z,27.97
2023-05-19T08:11:41.502Z,27.51
2023-05-19T08:14:30.274Z,27.55
2023-05-19T08:20:40.272Z,27.67
2023-05-19T08:23:36.361Z,28.33
2023-05-19T08:26:25.773Z,27.71
2023-05-19T08:29:38.062Z,26.44
2023-05-19T08:32:38.163Z,26.62
2023-05-19T08:35:33.211Z,27.50
2023-05-19T08:38:22.904Z,26.09
2023-05-19T08:41:31.341Z,26.39
2023-05-19T08:44:26.387Z,26.60
2023-05-19T08:47:27.340Z,26.02
2023-05-19T08:50:11.570Z,26.19
2023-05-19T08:53:00.222Z,26.50
2023-05-19T08:55:51.548Z,25.91
2023-05-19T08:58:34.090Z,26.54
2023-05-19T09:01:07.981Z,25.46
2023-05-19T09:03:43.378Z,26.05
2023-05-19T09:06:28.476Z,25.54
2023-05-19T09:09:05.467Z,25.98
2023-05-19T09:11:39.948Z,25.73
2023-05-19T09:14:12.525Z,26.01
2023-05-19T09:16:47.013Z,25.61
2023-05-19T09:19:21.238Z,26.20
2023-05-19T09:22:09.119Z,25.77
2023-05-19T09:24:43.877Z,26.42
2023-05-19T09:27:30.349Z,26.13
2023-05-19T09:30:11.394Z,26.69
2023-05-19T09:35:48.594Z,26.25
2023-05-19T09:38:25.570Z,26.19
2023-05-19T09:41:04.403Z,27.41
2023-05-19T09:43:41.962Z,28.09
2023-05-19T09:46:19.812Z,26.39
2023-05-19T09:49:03.888Z,26.70
2023-05-19T09:51:54.467Z,26.68
2023-05-19T09:54:39.096Z,26.61
2023-05-19T09:57:11.639Z,26.55
2023-05-19T09:59:46.630Z,25.63
2023-05-19T10:02:23.750Z,26.93
2023-05-19T10:05:04.371Z,26.48
2023-05-19T10:07:41.216Z,26.16
2023-05-19T10:10:32.426Z,26.19
2023-05-19T10:13:11.049Z,26.13
2023-05-19T10:15:58.223Z,26.23
2023-05-19T10:18:39.987Z,26.66
2023-05-19T10:21:10.783Z,26.72
2023-05-19T10:23:40.461Z,27.13
2023-05-19T10:26:11.358Z,26.24
2023-05-19T10:28:44.840Z,28.40
2023-05-19T10:31:21.650Z,26.35
2023-05-19T12:15:09.736Z,26.52
2023-05-19T12:34:25.124Z,26.55
2023-05-19T12:37:15.469Z,26.37
2023-05-19T13:06:57.427Z,28.78
2023-05-19T13:16:56.229Z,29.68
2023-05-19T14:09:01.877Z,30.44
2023-05-19T15:44:32.340Z,37.50
2023-05-19T16:01:26.441Z,40.61
2023-05-19T16:25:41.763Z,41.95
2023-05-19T17:00:41.489Z,43.23
2023-05-19T18:03:18.995Z,46.47
